Latest Weather Observations for Browse Island

IDW60801

Issued at 2:03 am WST Friday 29 July 2016 (issued every 30 minutes, with the page automatically refreshed every 10 minutes)

About weather observations | Map of weather stations | Latest weather observations for WA | Other Formats
Station Details ID: 200784 Name: BROWSE ISLAND Lat: -14.11 Lon: 123.55 Height: 3.7 m
Data from the previous 72 hours. | See also: Recent months at Browse Island
Date/Time
WST
Temp
°C
App
Temp
°C
Dew
Point
°C
Rel
Hum
%
Delta-T
°C
Wind Press
QNH
hPa
Press
MSL
hPa
Rain since
9am
mm
Dir  Spd
km/h
Gust
km/h
Spd
kts
Gust
kts
29/02:00am 26.3 - - - - ENE 15 17 8 9 1014.0 1014.3 -
29/01:30am 27.0 - - - - ENE 17 17 9 9 1014.0 - -
29/01:00am 26.5 - - - - ENE 17 - 9 - 1014.0 1014.8 -
29/12:30am 27.0 - - - - ENE 17 - 9 - 1014.0 - -
29/12:00am 26.5 - - - - ENE 15 - 8 - 1015.0 1014.9 -
 
Date/Time
WST
Temp
°C
App
Temp
°C
Dew
Point
°C
Rel
Hum
%
Delta-T
°C
Wind Press
QNH
hPa
Press
MSL
hPa
Rain since
9am
mm
Dir  Spd
km/h
Gust
km/h
Spd
kts
Gust
kts
28/11:30pm 27.0 - - - - ENE 15 - 8 - 1015.0 - -
28/11:00pm 26.8 - - - - NE 15 - 8 - 1015.0 1015.1 -
28/10:30pm 27.0 - - - - ENE 15 - 8 - 1015.0 - -
28/10:00pm 26.8 - - - - ENE 15 - 8 - 1015.0 1015.3 -
28/09:30pm 27.0 - - - - NE 17 - 9 - 1015.0 - -
28/09:00pm 26.9 - - - - NE 17 - 9 - 1015.0 1015.2 -
28/08:30pm 27.0 - - - - NE 17 - 9 - 1015.0 - -
28/08:00pm 26.9 - - - - ENE 17 - 9 - 1015.0 1015.2 -
28/07:30pm 27.0 - - - - ENE 19 - 10 - 1015.0 - -
28/07:00pm 26.7 - - - - ENE 20 - 11 - 1014.0 1014.8 -
28/06:30pm 27.0 - - - - E 20 - 11 - 1014.0 - -
28/06:00pm 26.7 - - - - E 24 - 13 - 1014.0 1014.1 -
28/05:30pm 27.0 - - - - E 22 - 12 - 1013.0 - -
28/05:00pm 26.9 - - - - ENE 22 - 12 - 1013.0 1013.5 -
28/04:30pm 27.0 - - - - E 24 - 13 - 1013.0 - -
28/04:00pm 27.0 - - - - ENE 26 - 14 - 1013.0 1013.3 -
28/03:30pm 27.0 - - - - ENE 28 - 15 - 1013.0 - -
28/03:00pm 27.6 - - - - ENE 28 - 15 - 1013.0 1013.2 -
28/02:30pm 27.0 - - - - E 28 - 15 - 1013.0 - -
28/02:00pm 27.0 - - - - E 32 - 17 - 1013.0 1013.5 -
28/01:30pm 28.0 - - - - E 30 - 16 - 1014.0 - -
28/01:00pm 27.3 - - - - E 33 - 18 - 1014.0 1014.1 -
28/12:30pm 27.0 - - - - E 33 - 18 - 1014.0 - -
28/12:00pm 27.5 - - - - E 33 - 18 - 1015.0 1015.0 -
28/11:30am 28.0 - - - - E 33 - 18 - 1015.0 - -
28/11:00am 28.2 - - - - E 33 - 18 - 1015.0 1015.6 -
28/10:30am 27.0 - - - - E 33 - 18 - 1015.0 - -
28/10:00am 27.5 - - - - E 35 - 19 - 1016.0 1016.0 -
28/09:30am 28.0 - - - - E 37 - 20 - 1016.0 - -
28/09:00am 27.6 - - - - E 37 - 20 - 1016.0 1016.2 -
28/08:30am 28.0 - - - - E 33 - 18 - 1016.0 - -
28/08:00am 28.0 - - - - ESE 37 - 20 - 1016.0 1016.2 -
28/07:30am 28.0 - - - - E 35 - 19 - 1016.0 - -
28/07:00am 28.1 - - - - ESE 41 - 22 - 1015.0 1015.8 -
28/06:30am 28.0 - - - - E 39 - 21 - 1015.0 - -
28/06:00am 27.7 - - - - E 33 - 18 - 1015.0 1015.3 -
28/05:30am 28.0 - - - - E 32 - 17 - 1015.0 - -
28/05:00am 28.0 - - - - E 32 - 17 - 1014.0 1014.6 -
28/04:30am 28.0 - - - - E 28 - 15 - 1014.0 - -
28/04:00am 27.4 - - - - E 26 - 14 - 1014.0 1014.5 -
28/03:30am 28.0 - - - - ENE 26 - 14 - 1014.0 - -
28/03:00am 27.5 - - - - ENE 28 - 15 - 1014.0 1014.3 -
28/02:30am 28.0 - - - - ENE 26 - 14 - 1014.0 - -
28/02:00am 27.5 - - - - ENE 26 - 14 - 1014.0 1014.4 -
28/01:30am 28.0 - - - - ENE 24 - 13 - 1014.0 - -
28/01:00am 27.7 - - - - ENE 26 - 14 - 1014.0 1014.6 -
28/12:30am 28.0 - - - - ENE 24 - 13 - 1014.0 - -
28/12:00am 27.5 - - - - NE 26 - 14 - 1014.0 1014.7 -
 
Date/Time
WST
Temp
°C
App
Temp
°C
Dew
Point
°C
Rel
Hum
%
Delta-T
°C
Wind Press
QNH
hPa
Press
MSL
hPa
Rain since
9am
mm
Dir  Spd
km/h
Gust
km/h
Spd
kts
Gust
kts
27/11:30pm 28.0 - - - - ENE 28 - 15 - 1014.0 - -
27/11:00pm 27.5 - - - - NE 26 - 14 - 1014.0 1014.8 -
27/10:30pm 28.0 - - - - NE 24 - 13 - 1015.0 - -
27/10:00pm 27.5 - - - - NE 24 - 13 - 1015.0 1015.0 -
27/09:30pm 28.0 - - - - NE 28 - 15 - 1014.0 - -
27/09:00pm 27.9 - - - - NE 28 - 15 - 1014.0 1014.7 -
27/08:30pm 28.0 - - - - NE 28 - 15 - 1014.0 - -
27/08:00pm 27.9 - - - - NE 28 - 15 - 1014.0 1014.5 -
27/07:30pm 28.0 - - - - NE 30 - 16 - 1014.0 - -
27/07:00pm 28.0 - - - - ENE 28 - 15 - 1013.0 1013.8 -
27/06:30pm 28.0 - - - - ENE 26 - 14 - 1013.0 - -
27/06:00pm 28.0 - - - - ENE 24 - 13 - 1013.0 1013.2 -
27/05:30pm 28.0 - - - - ENE 28 - 15 - 1013.0 - -
27/05:00pm 28.1 - - - - ENE 28 - 15 - 1012.0 1012.6 -
27/04:30pm 28.0 - - - - ENE 30 - 16 - 1012.0 - -
27/04:00pm 28.2 - - - - ENE 33 - 18 - 1012.0 1012.2 -
27/03:30pm 28.0 - - - - ENE 32 - 17 - 1012.0 - -
27/03:00pm 28.4 - - - - ENE 32 - 17 - 1012.0 1012.2 -
27/02:30pm 28.0 - - - - E 33 - 18 - 1012.0 - -
27/02:00pm 28.8 - - - - E 32 - 17 - 1012.0 1012.2 -
27/01:30pm 29.0 - - - - E 30 - 16 - 1012.0 - -
27/01:00pm 29.4 - - - - E 28 - 15 - 1012.0 1012.6 -
27/12:30pm 29.0 - - - - E 30 - 16 - 1012.0 - -
27/12:00pm 28.5 - - - - E 28 - 15 - 1013.0 1013.1 -
27/11:30am 29.0 - - - - E 26 - 14 - 1013.0 - -
27/11:00am 28.8 - - - - ENE 20 - 11 - 1013.0 1013.8 -
27/10:30am 29.0 - - - - ENE 22 - 12 - 1014.0 - -
27/10:00am 29.1 - - - - E 17 - 9 - 1014.0 1014.4 -
27/09:30am 29.0 - - - - E 15 - 8 - 1014.0 - -
27/09:00am 28.4 - - - - E 15 - 8 - 1014.0 1014.6 -
27/08:30am 29.0 - - - - E 15 - 8 - 1014.0 - -
27/08:00am 28.3 - - - - E 13 - 7 - 1014.0 1014.3 -
27/07:30am 28.0 - - - - ENE 11 - 6 - 1014.0 - -
27/07:00am 27.4 - - - - E 11 - 6 - 1013.0 1013.7 -
27/06:30am 27.0 - - - - ENE 11 - 6 - 1013.0 - -
27/06:00am 26.8 - - - - ENE 13 - 7 - 1013.0 1013.4 -
27/05:30am 27.0 - - - - ENE 13 - 7 - 1013.0 - -
27/05:00am 26.8 - - - - E 7 - 4 - 1013.0 1012.9 -
27/04:30am 27.0 - - - - ENE 9 - 5 - 1012.0 - -
27/04:00am 26.7 - - - - ENE 11 - 6 - 1012.0 1012.5 -
27/03:30am 27.0 - - - - E 9 - 5 - 1012.0 - -
27/03:00am 26.8 - - - - ENE 9 - 5 - 1012.0 1012.5 -
27/02:30am 27.0 - - - - E 9 - 5 - 1012.0 - -
27/02:00am 26.6 - - - - E 9 - 5 - 1012.0 1012.5 -
27/01:30am 27.0 - - - - ENE 9 - 5 - 1012.0 - -
27/01:00am 26.8 - - - - ESE 9 - 5 - 1013.0 1012.9 -
27/12:30am 27.0 - - - - ENE 9 - 5 - 1013.0 - -
27/12:00am 26.7 - - - - E 7 - 4 - 1013.0 1013.1 -
 
Date/Time
WST
Temp
°C
App
Temp
°C
Dew
Point
°C
Rel
Hum
%
Delta-T
°C
Wind Press
QNH
hPa
Press
MSL
hPa
Rain since
9am
mm
Dir  Spd
km/h
Gust
km/h
Spd
kts
Gust
kts
26/11:30pm 27.0 - - - - ESE 6 - 3 - 1013.0 - -
26/11:00pm 26.7 - - - - SE 2 - 1 - 1013.0 1013.4 -
26/10:30pm 27.0 - - - - CALM 0 - 0 - 1013.0 - -
26/10:00pm 26.7 - - - - CALM 0 - 0 - 1013.0 1013.5 -
26/09:30pm 27.0 - - - - CALM 0 - 0 - 1013.0 - -
26/09:00pm 27.1 - - - - W 6 - 3 - 1013.0 1013.3 -
26/08:30pm 27.0 - - - - W 7 - 4 - 1013.0 - -
26/08:00pm 27.3 - - - - WNW 7 - 4 - 1013.0 1013.1 -
26/07:30pm 27.0 - - - - W 7 - 4 - 1013.0 - -
26/07:00pm 27.4 - - - - WSW 6 - 3 - 1012.0 1012.6 -
26/06:30pm 28.0 - - - - SSW 7 - 4 - 1012.0 - -
26/06:00pm 27.5 - - - - SSE 6 - 3 - 1012.0 1012.3 -
26/05:30pm 28.0 - - - - SE 7 - 4 - 1012.0 - -
26/05:00pm 27.8 - - - - S 13 - 7 - 1011.0 1011.6 -
26/04:30pm 28.0 - - - - SE 9 - 5 - 1011.0 - -
26/04:00pm 28.8 - - - - ESE 9 - 5 - 1011.0 1011.0 -
26/03:30pm 29.0 - - - - E 9 - 5 - 1011.0 - -
26/03:00pm 29.1 - - - - ENE 11 - 6 - 1010.0 1010.8 -
26/02:30pm 29.0 - - - - ESE 13 - 7 - 1011.0 - -
26/02:00pm 29.0 - - - - SE 13 - 7 - 1011.0 1011.1 -
26/01:30pm 29.0 - - - - SSE 13 - 7 - 1011.0 - -
26/01:00pm 28.8 - - - - SSE 13 - 7 - 1011.0 1011.5 -
26/12:30pm 29.0 - - - - SSE 13 - 7 - 1011.0 - -
26/12:00pm 28.9 - - - - S 13 - 7 - 1012.0 1012.2 -
26/11:30am 28.0 - - - - S 13 - 7 - 1012.0 - -
26/11:00am 28.3 - - - - S 15 - 8 - 1013.0 1013.0 -
26/10:30am 28.0 - - - - S 13 - 7 - 1013.0 - -
26/10:00am 28.6 - - - - S 11 - 6 - 1013.0 1013.6 -
26/09:30am 28.0 - - - - S 13 - 7 - 1014.0 - -
26/09:00am 27.5 - - - - S 11 - 6 - 1014.0 1013.9 -
26/08:30am 27.0 - - - - S 15 - 8 - 1013.0 - -
26/08:00am 27.2 - - - - SSW 15 - 8 - 1013.0 1013.7 -
26/07:30am 27.0 - - - - CALM 0 - 0 - 1013.0 - -
26/07:00am 27.0 - - - - CALM 0 - 0 - 1013.0 1013.2 -
26/06:30am 27.0 - - - - CALM 0 - 0 - 1013.0 - -
26/06:00am 26.9 - - - - SSE 6 - 3 - 1012.0 1012.8 -
26/05:30am 27.0 - - - - SE 6 - 3 - 1012.0 - -
26/05:00am 26.9 - - - - E 6 - 3 - 1012.0 1012.4 -
26/04:30am 27.0 - - - - E 7 - 4 - 1012.0 - -
26/04:00am 27.0 - - - - E 7 - 4 - 1012.0 1012.4 -
26/03:30am 27.0 - - - - ESE 9 - 5 - 1012.0 - -
26/03:00am 27.2 - - - - ESE 9 - 5 - 1012.0 1012.2 -
26/02:30am 27.0 - - - - ESE 9 - 5 - 1012.0 - -

Other Formats:

Comma delimited format used in spreadsheet applications
http://www.bom.gov.au/fwo/IDW60801/IDW60801.94103.axf

JavaScript Object Notation format (JSON) in row-major order
http://www.bom.gov.au/fwo/IDW60801/IDW60801.94103.json